sensor_id;sensor_type;location;lat;lon;timestamp;temperature;humidity
21193;DHT22;10754;51.106;7.164;2022-12-18T00:00:20;1.30;1.00
21193;DHT22;10754;51.106;7.164;2022-12-18T00:02:49;1.30;1.00
21193;DHT22;10754;51.106;7.164;2022-12-18T00:05:16;1.50;1.00
21193;DHT22;10754;51.106;7.164;2022-12-18T00:07:49;1.20;1.00
21193;DHT22;10754;51.106;7.164;2022-12-18T00:10:17;1.50;1.00
21193;DHT22;10754;51.106;7.164;2022-12-18T00:12:48;1.30;1.00
21193;DHT22;10754;51.106;7.164;2022-12-18T00:15:18;1.40;1.00
21193;DHT22;10754;51.106;7.164;2022-12-18T00:17:44;1.30;1.00
21193;DHT22;10754;51.106;7.164;2022-12-18T00:20:21;1.30;1.00
21193;DHT22;10754;51.106;7.164;2022-12-18T00:23:00;1.30;1.00
21193;DHT22;10754;51.106;7.164;2022-12-18T00:25:30;1.10;1.00
21193;DHT22;10754;51.106;7.164;2022-12-18T00:27:59;1.20;1.00
21193;DHT22;10754;51.106;7.164;2022-12-18T00:30:30;1.10;1.00
21193;DHT22;10754;51.106;7.164;2022-12-18T00:33:22;1.10;1.00
21193;DHT22;10754;51.106;7.164;2022-12-18T00:35:51;1.40;1.00
21193;DHT22;10754;51.106;7.164;2022-12-18T00:38:21;1.20;1.00
21193;DHT22;10754;51.106;7.164;2022-12-18T00:40:58;1.10;1.00
21193;DHT22;10754;51.106;7.164;2022-12-18T00:43:29;0.90;1.00
21193;DHT22;10754;51.106;7.164;2022-12-18T00:46:01;1.20;1.00
21193;DHT22;10754;51.106;7.164;2022-12-18T00:48:47;1.00;1.00
21193;DHT22;10754;51.106;7.164;2022-12-18T00:51:29;1.20;1.00
21193;DHT22;10754;51.106;7.164;2022-12-18T00:54:00;1.20;1.00
21193;DHT22;10754;51.106;7.164;2022-12-18T00:56:40;1.00;1.00
21193;DHT22;10754;51.106;7.164;2022-12-18T00:59:11;1.60;1.00
21193;DHT22;10754;51.106;7.164;2022-12-18T01:01:55;1.30;1.00
21193;DHT22;10754;51.106;7.164;2022-12-18T01:04:33;1.30;1.00
21193;DHT22;10754;51.106;7.164;2022-12-18T01:06:59;1.10;1.00
21193;DHT22;10754;51.106;7.164;2022-12-18T01:09:34;1.10;1.00
21193;DHT22;10754;51.106;7.164;2022-12-18T01:12:05;1.20;1.00
21193;DHT22;10754;51.106;7.164;2022-12-18T01:14:47;1.10;1.00
21193;DHT22;10754;51.106;7.164;2022-12-18T01:17:18;1.10;1.00
21193;DHT22;10754;51.106;7.164;2022-12-18T01:19:51;1.10;1.00
21193;DHT22;10754;51.106;7.164;2022-12-18T01:22:18;1.30;1.00
21193;DHT22;10754;51.106;7.164;2022-12-18T01:24:47;1.30;1.00
21193;DHT22;10754;51.106;7.164;2022-12-18T01:27:13;1.30;1.00
21193;DHT22;10754;51.106;7.164;2022-12-18T01:29:49;1.20;1.00
21193;DHT22;10754;51.106;7.164;2022-12-18T01:32:21;1.30;1.00
21193;DHT22;10754;51.106;7.164;2022-12-18T01:34:50;1.30;1.00
21193;DHT22;10754;51.106;7.164;2022-12-18T01:37:26;1.20;1.00
21193;DHT22;10754;51.106;7.164;2022-12-18T01:39:54;1.10;1.00
21193;DHT22;10754;51.106;7.164;2022-12-18T01:42:30;1.10;1.00
21193;DHT22;10754;51.106;7.164;2022-12-18T01:45:27;1.10;1.00
21193;DHT22;10754;51.106;7.164;2022-12-18T01:48:12;1.10;1.00
21193;DHT22;10754;51.106;7.164;2022-12-18T01:50:50;1.00;1.00
21193;DHT22;10754;51.106;7.164;2022-12-18T01:53:19;0.90;1.00
21193;DHT22;10754;51.106;7.164;2022-12-18T01:55:56;0.90;1.00
21193;DHT22;10754;51.106;7.164;2022-12-18T02:01:32;1.00;1.00
21193;DHT22;10754;51.106;7.164;2022-12-18T02:04:48;0.90;1.00
21193;DHT22;10754;51.106;7.164;2022-12-18T02:28:16;1.10;1.00
21193;DHT22;10754;51.106;7.164;2022-12-18T02:34:19;1.20;1.00
21193;DHT22;10754;51.106;7.164;2022-12-18T02:36:49;1.10;1.00
21193;DHT22;10754;51.106;7.164;2022-12-18T02:39:29;1.20;1.00
21193;DHT22;10754;51.106;7.164;2022-12-18T02:42:04;1.10;1.00
21193;DHT22;10754;51.106;7.164;2022-12-18T02:44:39;1.10;1.00
21193;DHT22;10754;51.106;7.164;2022-12-18T02:47:18;1.30;1.00
21193;DHT22;10754;51.106;7.164;2022-12-18T03:05:37;1.40;1.00
21193;DHT22;10754;51.106;7.164;2022-12-18T03:11:03;1.30;1.00
21193;DHT22;10754;51.106;7.164;2022-12-18T03:14:00;1.10;1.00
21193;DHT22;10754;51.106;7.164;2022-12-18T03:16:31;1.20;1.00
21193;DHT22;10754;51.106;7.164;2022-12-18T03:22:17;1.40;1.00
21193;DHT22;10754;51.106;7.164;2022-12-18T03:24:52;1.40;1.00
21193;DHT22;10754;51.106;7.164;2022-12-18T03:28:02;1.40;1.00
21193;DHT22;10754;51.106;7.164;2022-12-18T03:30:41;1.20;1.00
21193;DHT22;10754;51.106;7.164;2022-12-18T03:33:27;1.10;1.00
21193;DHT22;10754;51.106;7.164;2022-12-18T03:36:04;1.10;1.00
21193;DHT22;10754;51.106;7.164;2022-12-18T03:38:29;1.20;1.00
21193;DHT22;10754;51.106;7.164;2022-12-18T03:47:09;1.20;1.00
21193;DHT22;10754;51.106;7.164;2022-12-18T03:49:56;1.20;1.00
21193;DHT22;10754;51.106;7.164;2022-12-18T03:55:11;1.00;1.00
21193;DHT22;10754;51.106;7.164;2022-12-18T03:57:41;1.20;1.00
21193;DHT22;10754;51.106;7.164;2022-12-18T04:00:17;1.10;1.00
21193;DHT22;10754;51.106;7.164;2022-12-18T04:02:52;1.00;1.00
21193;DHT22;10754;51.106;7.164;2022-12-18T04:05:30;1.00;1.00
21193;DHT22;10754;51.106;7.164;2022-12-18T04:08:16;0.90;1.00
21193;DHT22;10754;51.106;7.164;2022-12-18T04:10:59;1.00;1.00
21193;DHT22;10754;51.106;7.164;2022-12-18T04:13:33;1.10;1.00
21193;DHT22;10754;51.106;7.164;2022-12-18T04:16:20;1.10;1.00
21193;DHT22;10754;51.106;7.164;2022-12-18T04:18:57;1.20;1.00
21193;DHT22;10754;51.106;7.164;2022-12-18T04:21:32;1.20;1.00
21193;DHT22;10754;51.106;7.164;2022-12-18T04:24:00;1.40;1.00
21193;DHT22;10754;51.106;7.164;2022-12-18T04:26:37;1.80;1.00
21193;DHT22;10754;51.106;7.164;2022-12-18T04:29:09;1.40;1.00
21193;DHT22;10754;51.106;7.164;2022-12-18T04:31:43;1.30;1.00
21193;DHT22;10754;51.106;7.164;2022-12-18T04:34:09;1.40;1.00
21193;DHT22;10754;51.106;7.164;2022-12-18T04:36:46;1.30;1.00
21193;DHT22;10754;51.106;7.164;2022-12-18T04:39:20;1.20;1.00
21193;DHT22;10754;51.106;7.164;2022-12-18T04:41:46;1.40;1.00
21193;DHT22;10754;51.106;7.164;2022-12-18T04:44:11;1.40;1.00
21193;DHT22;10754;51.106;7.164;2022-12-18T04:46:42;1.40;1.00
21193;DHT22;10754;51.106;7.164;2022-12-18T04:49:14;1.40;1.00
21193;DHT22;10754;51.106;7.164;2022-12-18T04:51:44;1.30;1.00
21193;DHT22;10754;51.106;7.164;2022-12-18T04:54:10;1.30;1.00
21193;DHT22;10754;51.106;7.164;2022-12-18T04:56:38;1.40;1.00
21193;DHT22;10754;51.106;7.164;2022-12-18T04:59:17;1.40;1.00
21193;DHT22;10754;51.106;7.164;2022-12-18T05:01:54;1.40;1.00
21193;DHT22;10754;51.106;7.164;2022-12-18T05:04:19;1.40;1.00
21193;DHT22;10754;51.106;7.164;2022-12-18T05:06:47;1.60;1.00
21193;DHT22;10754;51.106;7.164;2022-12-18T05:09:18;1.40;1.00
21193;DHT22;10754;51.106;7.164;2022-12-18T05:11:50;1.30;1.00
21193;DHT22;10754;51.106;7.164;2022-12-18T05:14:19;1.20;1.00
21193;DHT22;10754;51.106;7.164;2022-12-18T05:16:55;1.30;1.00
21193;DHT22;10754;51.106;7.164;2022-12-18T05:19:33;1.30;1.00
21193;DHT22;10754;51.106;7.164;2022-12-18T05:22:01;1.30;1.00
21193;DHT22;10754;51.106;7.164;2022-12-18T05:24:32;1.20;1.00
21193;DHT22;10754;51.106;7.164;2022-12-18T05:27:01;1.30;1.00
21193;DHT22;10754;51.106;7.164;2022-12-18T05:29:47;1.20;1.00
21193;DHT22;10754;51.106;7.164;2022-12-18T05:32:36;1.10;1.00
21193;DHT22;10754;51.106;7.164;2022-12-18T05:35:14;1.00;1.00
21193;DHT22;10754;51.106;7.164;2022-12-18T05:37:43;0.90;1.00
21193;DHT22;10754;51.106;7.164;2022-12-18T05:40:15;1.00;1.00
21193;DHT22;10754;51.106;7.164;2022-12-18T05:42:45;1.20;1.00
21193;DHT22;10754;51.106;7.164;2022-12-18T05:45:16;1.30;1.00
21193;DHT22;10754;51.106;7.164;2022-12-18T05:47:42;1.20;1.00
21193;DHT22;10754;51.106;7.164;2022-12-18T05:50:08;1.20;1.00
21193;DHT22;10754;51.106;7.164;2022-12-18T05:52:41;1.10;1.00
21193;DHT22;10754;51.106;7.164;2022-12-18T05:58:21;1.20;1.00
21193;DHT22;10754;51.106;7.164;2022-12-18T06:01:11;1.30;1.00
21193;DHT22;10754;51.106;7.164;2022-12-18T06:06:43;1.10;1.00
21193;DHT22;10754;51.106;7.164;2022-12-18T06:09:09;1.00;1.00
21193;DHT22;10754;51.106;7.164;2022-12-18T06:12:06;0.90;1.00
21193;DHT22;10754;51.106;7.164;2022-12-18T06:14:53;0.90;1.00
21193;DHT22;10754;51.106;7.164;2022-12-18T06:17:27;1.00;1.00
21193;DHT22;10754;51.106;7.164;2022-12-18T06:19:58;1.00;1.00
21193;DHT22;10754;51.106;7.164;2022-12-18T06:22:31;1.00;1.00
21193;DHT22;10754;51.106;7.164;2022-12-18T06:24:57;1.10;1.00
21193;DHT22;10754;51.106;7.164;2022-12-18T06:27:29;1.00;1.00
21193;DHT22;10754;51.106;7.164;2022-12-18T06:30:08;1.00;1.00
21193;DHT22;10754;51.106;7.164;2022-12-18T06:32:43;0.90;1.00
21193;DHT22;10754;51.106;7.164;2022-12-18T06:35:18;0.80;1.00
21193;DHT22;10754;51.106;7.164;2022-12-18T06:37:46;0.80;1.00
21193;DHT22;10754;51.106;7.164;2022-12-18T06:40:12;0.90;1.00
21193;DHT22;10754;51.106;7.164;2022-12-18T06:42:40;1.00;1.00
21193;DHT22;10754;51.106;7.164;2022-12-18T06:45:09;1.00;1.00
21193;DHT22;10754;51.106;7.164;2022-12-18T06:47:37;1.00;1.00
21193;DHT22;10754;51.106;7.164;2022-12-18T06:50:11;1.00;1.00
21193;DHT22;10754;51.106;7.164;2022-12-18T06:52:39;0.90;1.00
21193;DHT22;10754;51.106;7.164;2022-12-18T06:58:00;0.80;1.00
21193;DHT22;10754;51.106;7.164;2022-12-18T07:00:26;0.90;1.00
21193;DHT22;10754;51.106;7.164;2022-12-18T07:02:54;0.90;1.00
21193;DHT22;10754;51.106;7.164;2022-12-18T07:05:22;1.10;1.00
21193;DHT22;10754;51.106;7.164;2022-12-18T07:07:48;1.10;1.00
21193;DHT22;10754;51.106;7.164;2022-12-18T07:10:16;1.10;1.00
21193;DHT22;10754;51.106;7.164;2022-12-18T07:12:42;1.10;1.00
21193;DHT22;10754;51.106;7.164;2022-12-18T07:15:36;1.00;1.00
21193;DHT22;10754;51.106;7.164;2022-12-18T07:18:11;1.10;1.00
21193;DHT22;10754;51.106;7.164;2022-12-18T07:20:36;1.00;1.00
21193;DHT22;10754;51.106;7.164;2022-12-18T07:23:07;1.00;1.00
21193;DHT22;10754;51.106;7.164;2022-12-18T07:25:38;1.10;1.00
21193;DHT22;10754;51.106;7.164;2022-12-18T07:28:15;1.00;1.00
21193;DHT22;10754;51.106;7.164;2022-12-18T07:30:48;1.10;1.00
21193;DHT22;10754;51.106;7.164;2022-12-18T07:33:18;1.00;1.00
21193;DHT22;10754;51.106;7.164;2022-12-18T07:35:47;1.00;1.00
21193;DHT22;10754;51.106;7.164;2022-12-18T07:38:21;1.10;1.00
21193;DHT22;10754;51.106;7.164;2022-12-18T07:41:22;1.20;1.00
21193;DHT22;10754;51.106;7.164;2022-12-18T07:43:51;1.60;1.00
21193;DHT22;10754;51.106;7.164;2022-12-18T07:46:31;1.40;1.00
21193;DHT22;10754;51.106;7.164;2022-12-18T07:52:27;1.50;1.00
21193;DHT22;10754;51.106;7.164;2022-12-18T07:55:45;1.40;1.00
21193;DHT22;10754;51.106;7.164;2022-12-18T08:01:52;1.20;1.00
21193;DHT22;10754;51.106;7.164;2022-12-18T08:04:53;1.20;1.00
21193;DHT22;10754;51.106;7.164;2022-12-18T08:10:47;1.40;1.00
21193;DHT22;10754;51.106;7.164;2022-12-18T08:16:34;1.40;1.00
21193;DHT22;10754;51.106;7.164;2022-12-18T08:19:35;1.30;1.00
21193;DHT22;10754;51.106;7.164;2022-12-18T08:25:31;1.30;1.00
21193;DHT22;10754;51.106;7.164;2022-12-18T08:28:19;1.60;1.00
21193;DHT22;10754;51.106;7.164;2022-12-18T08:34:03;1.80;1.00
21193;DHT22;10754;51.106;7.164;2022-12-18T08:36:31;1.90;1.00
21193;DHT22;10754;51.106;7.164;2022-12-18T08:39:30;1.80;1.00
21193;DHT22;10754;51.106;7.164;2022-12-18T08:42:03;1.80;1.00
21193;DHT22;10754;51.106;7.164;2022-12-18T08:45:22;2.10;1.00
21193;DHT22;10754;51.106;7.164;2022-12-18T08:58:12;2.50;1.00
21193;DHT22;10754;51.106;7.164;2022-12-18T09:01:08;2.70;1.00
21193;DHT22;10754;51.106;7.164;2022-12-18T09:04:45;2.70;1.00
21193;DHT22;10754;51.106;7.164;2022-12-18T09:07:35;2.80;1.00
21193;DHT22;10754;51.106;7.164;2022-12-18T09:13:42;2.80;1.00
21193;DHT22;10754;51.106;7.164;2022-12-18T09:20:12;3.10;1.00
21193;DHT22;10754;51.106;7.164;2022-12-18T09:23:30;3.30;1.00
21193;DHT22;10754;51.106;7.164;2022-12-18T10:01:44;4.20;1.00
21193;DHT22;10754;51.106;7.164;2022-12-18T10:07:58;4.50;1.00
21193;DHT22;10754;51.106;7.164;2022-12-18T10:14:51;4.50;1.00
21193;DHT22;10754;51.106;7.164;2022-12-18T10:21:45;4.80;1.00
21193;DHT22;10754;51.106;7.164;2022-12-18T10:45:26;5.90;1.00
21193;DHT22;10754;51.106;7.164;2022-12-18T10:51:58;6.40;1.00
21193;DHT22;10754;51.106;7.164;2022-12-18T11:02:57;6.70;99.90
21193;DHT22;10754;51.106;7.164;2022-12-18T11:26:48;6.10;1.00
21193;DHT22;10754;51.106;7.164;2022-12-18T11:30:06;5.90;1.00
21193;DHT22;10754;51.106;7.164;2022-12-18T11:47:27;5.60;1.00
21193;DHT22;10754;51.106;7.164;2022-12-18T11:56:35;5.70;1.00
21193;DHT22;10754;51.106;7.164;2022-12-18T12:02:25;5.50;1.00
21193;DHT22;10754;51.106;7.164;2022-12-18T12:12:15;4.90;1.00
21193;DHT22;10754;51.106;7.164;2022-12-18T12:41:23;4.70;1.00
21193;DHT22;10754;51.106;7.164;2022-12-18T12:44:33;4.70;1.00
21193;DHT22;10754;51.106;7.164;2022-12-18T12:47:11;4.50;1.00
21193;DHT22;10754;51.106;7.164;2022-12-18T12:49:39;4.50;1.00
21193;DHT22;10754;51.106;7.164;2022-12-18T12:54:51;4.20;1.00
21193;DHT22;10754;51.106;7.164;2022-12-18T12:57:33;4.30;1.00
21193;DHT22;10754;51.106;7.164;2022-12-18T13:02:46;4.50;1.00
21193;DHT22;10754;51.106;7.164;2022-12-18T13:07:59;4.40;1.00
21193;DHT22;10754;51.106;7.164;2022-12-18T13:10:32;4.30;1.00
21193;DHT22;10754;51.106;7.164;2022-12-18T13:15:40;4.10;1.00
21193;DHT22;10754;51.106;7.164;2022-12-18T13:20:35;4.10;1.00
21193;DHT22;10754;51.106;7.164;2022-12-18T13:32:00;4.10;1.00
21193;DHT22;10754;51.106;7.164;2022-12-18T13:34:20;4.00;1.00
21193;DHT22;10754;51.106;7.164;2022-12-18T13:36:46;4.30;1.00
21193;DHT22;10754;51.106;7.164;2022-12-18T13:41:46;3.90;1.00
21193;DHT22;10754;51.106;7.164;2022-12-18T13:44:36;3.70;1.00
21193;DHT22;10754;51.106;7.164;2022-12-18T13:49:59;3.90;1.00
21193;DHT22;10754;51.106;7.164;2022-12-18T13:52:33;3.90;1.00
21193;DHT22;10754;51.106;7.164;2022-12-18T13:55:02;3.80;1.00
21193;DHT22;10754;51.106;7.164;2022-12-18T13:57:32;4.00;1.00
21193;DHT22;10754;51.106;7.164;2022-12-18T14:00:16;3.80;1.00
21193;DHT22;10754;51.106;7.164;2022-12-18T14:02:45;3.70;1.00
21193;DHT22;10754;51.106;7.164;2022-12-18T14:05:31;3.90;1.00
21193;DHT22;10754;51.106;7.164;2022-12-18T14:08:05;3.80;1.00
21193;DHT22;10754;51.106;7.164;2022-12-18T14:10:32;4.00;1.00
21193;DHT22;10754;51.106;7.164;2022-12-18T14:13:04;4.10;1.00
21193;DHT22;10754;51.106;7.164;2022-12-18T14:15:41;4.10;1.00
21193;DHT22;10754;51.106;7.164;2022-12-18T14:21:26;3.90;1.00
21193;DHT22;10754;51.106;7.164;2022-12-18T14:24:14;4.00;1.00
21193;DHT22;10754;51.106;7.164;2022-12-18T14:26:41;4.00;1.00
21193;DHT22;10754;51.106;7.164;2022-12-18T14:29:26;3.70;1.00
21193;DHT22;10754;51.106;7.164;2022-12-18T14:32:10;3.90;1.00
21193;DHT22;10754;51.106;7.164;2022-12-18T14:34:36;4.00;1.00
21193;DHT22;10754;51.106;7.164;2022-12-18T14:37:02;3.80;1.00
21193;DHT22;10754;51.106;7.164;2022-12-18T14:39:28;3.90;1.00
21193;DHT22;10754;51.106;7.164;2022-12-18T14:41:54;3.90;1.00
21193;DHT22;10754;51.106;7.164;2022-12-18T14:44:20;3.90;1.00
21193;DHT22;10754;51.106;7.164;2022-12-18T14:46:48;3.60;1.00
21193;DHT22;10754;51.106;7.164;2022-12-18T14:49:29;3.70;1.00
21193;DHT22;10754;51.106;7.164;2022-12-18T14:51:59;3.50;1.00
21193;DHT22;10754;51.106;7.164;2022-12-18T14:54:27;3.70;1.00
21193;DHT22;10754;51.106;7.164;2022-12-18T14:59:26;3.80;1.00
21193;DHT22;10754;51.106;7.164;2022-12-18T15:02:08;3.50;1.00
21193;DHT22;10754;51.106;7.164;2022-12-18T15:04:40;3.80;1.00
21193;DHT22;10754;51.106;7.164;2022-12-18T15:07:16;3.70;1.00
21193;DHT22;10754;51.106;7.164;2022-12-18T15:09:44;3.80;1.00
21193;DHT22;10754;51.106;7.164;2022-12-18T15:12:34;3.50;1.00
21193;DHT22;10754;51.106;7.164;2022-12-18T15:15:00;3.70;1.00
21193;DHT22;10754;51.106;7.164;2022-12-18T15:17:26;3.60;1.00
21193;DHT22;10754;51.106;7.164;2022-12-18T15:19:58;3.40;1.00
21193;DHT22;10754;51.106;7.164;2022-12-18T15:22:34;3.50;1.00
21193;DHT22;10754;51.106;7.164;2022-12-18T15:25:00;3.70;1.00
21193;DHT22;10754;51.106;7.164;2022-12-18T15:27:32;3.50;1.00
21193;DHT22;10754;51.106;7.164;2022-12-18T15:32:33;3.70;1.00
21193;DHT22;10754;51.106;7.164;2022-12-18T15:35:23;3.80;1.00
21193;DHT22;10754;51.106;7.164;2022-12-18T15:37:52;3.60;1.00
21193;DHT22;10754;51.106;7.164;2022-12-18T15:40:23;3.70;1.00
21193;DHT22;10754;51.106;7.164;2022-12-18T15:42:51;3.80;1.00
21193;DHT22;10754;51.106;7.164;2022-12-18T15:45:36;3.70;1.00
21193;DHT22;10754;51.106;7.164;2022-12-18T15:48:20;3.60;1.00
21193;DHT22;10754;51.106;7.164;2022-12-18T15:50:46;3.80;1.00
21193;DHT22;10754;51.106;7.164;2022-12-18T15:53:12;3.80;1.00
21193;DHT22;10754;51.106;7.164;2022-12-18T15:55:38;3.50;1.00
21193;DHT22;10754;51.106;7.164;2022-12-18T15:58:22;3.60;1.00
21193;DHT22;10754;51.106;7.164;2022-12-18T16:00:48;3.40;1.00
21193;DHT22;10754;51.106;7.164;2022-12-18T16:03:13;3.80;1.00
21193;DHT22;10754;51.106;7.164;2022-12-18T16:05:39;3.80;1.00
21193;DHT22;10754;51.106;7.164;2022-12-18T16:08:05;3.70;1.00
21193;DHT22;10754;51.106;7.164;2022-12-18T16:10:31;3.60;1.00
21193;DHT22;10754;51.106;7.164;2022-12-18T16:12:57;3.60;1.00
21193;DHT22;10754;51.106;7.164;2022-12-18T16:15:23;3.60;1.00
21193;DHT22;10754;51.106;7.164;2022-12-18T16:17:49;3.80;1.00
21193;DHT22;10754;51.106;7.164;2022-12-18T16:20:17;3.70;1.00
21193;DHT22;10754;51.106;7.164;2022-12-18T16:22:44;3.60;1.00
21193;DHT22;10754;51.106;7.164;2022-12-18T16:25:17;3.70;1.00
21193;DHT22;10754;51.106;7.164;2022-12-18T16:27:46;3.70;1.00
21193;DHT22;10754;51.106;7.164;2022-12-18T16:30:17;3.70;1.00
21193;DHT22;10754;51.106;7.164;2022-12-18T16:32:43;3.60;1.00
21193;DHT22;10754;51.106;7.164;2022-12-18T16:35:11;3.20;1.00
21193;DHT22;10754;51.106;7.164;2022-12-18T16:37:37;3.30;1.00
21193;DHT22;10754;51.106;7.164;2022-12-18T16:40:03;3.60;1.00
21193;DHT22;10754;51.106;7.164;2022-12-18T16:42:29;3.10;1.00
21193;DHT22;10754;51.106;7.164;2022-12-18T16:44:55;3.20;1.00
21193;DHT22;10754;51.106;7.164;2022-12-18T16:47:21;3.10;1.00
21193;DHT22;10754;51.106;7.164;2022-12-18T16:49:47;3.10;1.00
21193;DHT22;10754;51.106;7.164;2022-12-18T16:52:17;2.70;1.00
21193;DHT22;10754;51.106;7.164;2022-12-18T16:54:43;3.00;1.00
21193;DHT22;10754;51.106;7.164;2022-12-18T16:57:12;3.00;1.00
21193;DHT22;10754;51.106;7.164;2022-12-18T16:59:38;2.90;1.00
21193;DHT22;10754;51.106;7.164;2022-12-18T17:02:04;2.90;1.00
21193;DHT22;10754;51.106;7.164;2022-12-18T17:04:30;3.10;1.00
21193;DHT22;10754;51.106;7.164;2022-12-18T17:06:56;3.20;1.00
21193;DHT22;10754;51.106;7.164;2022-12-18T17:09:22;3.10;1.00
21193;DHT22;10754;51.106;7.164;2022-12-18T17:11:52;3.40;1.00
21193;DHT22;10754;51.106;7.164;2022-12-18T17:14:20;3.20;1.00
21193;DHT22;10754;51.106;7.164;2022-12-18T17:16:46;3.20;1.00
21193;DHT22;10754;51.106;7.164;2022-12-18T17:19:13;3.30;1.00
21193;DHT22;10754;51.106;7.164;2022-12-18T17:21:41;3.20;1.00
21193;DHT22;10754;51.106;7.164;2022-12-18T17:24:08;3.20;1.00
21193;DHT22;10754;51.106;7.164;2022-12-18T17:26:34;3.10;1.00
21193;DHT22;10754;51.106;7.164;2022-12-18T17:29:02;3.10;1.00
21193;DHT22;10754;51.106;7.164;2022-12-18T17:31:29;3.20;1.00
21193;DHT22;10754;51.106;7.164;2022-12-18T17:33:55;3.10;1.00
21193;DHT22;10754;51.106;7.164;2022-12-18T17:36:22;3.10;1.00
21193;DHT22;10754;51.106;7.164;2022-12-18T17:38:52;3.20;1.00
21193;DHT22;10754;51.106;7.164;2022-12-18T17:41:18;3.10;1.00
21193;DHT22;10754;51.106;7.164;2022-12-18T17:46:18;3.30;1.00
21193;DHT22;10754;51.106;7.164;2022-12-18T17:48:44;3.10;1.00
21193;DHT22;10754;51.106;7.164;2022-12-18T17:51:10;3.00;1.00
21193;DHT22;10754;51.106;7.164;2022-12-18T17:53:37;2.90;1.00
21193;DHT22;10754;51.106;7.164;2022-12-18T17:56:10;2.90;1.00
21193;DHT22;10754;51.106;7.164;2022-12-18T17:58:37;2.80;1.00
21193;DHT22;10754;51.106;7.164;2022-12-18T18:01:04;3.00;1.00
21193;DHT22;10754;51.106;7.164;2022-12-18T18:03:31;2.80;1.00
21193;DHT22;10754;51.106;7.164;2022-12-18T18:05:59;2.70;1.00
21193;DHT22;10754;51.106;7.164;2022-12-18T18:08:26;2.80;1.00
21193;DHT22;10754;51.106;7.164;2022-12-18T18:10:53;2.80;1.00
21193;DHT22;10754;51.106;7.164;2022-12-18T18:13:24;2.70;1.00
21193;DHT22;10754;51.106;7.164;2022-12-18T18:16:10;2.60;1.00
21193;DHT22;10754;51.106;7.164;2022-12-18T18:18:37;2.70;1.00
21193;DHT22;10754;51.106;7.164;2022-12-18T18:21:07;2.80;1.00
21193;DHT22;10754;51.106;7.164;2022-12-18T18:23:34;2.70;1.00
21193;DHT22;10754;51.106;7.164;2022-12-18T18:26:07;2.70;1.00
21193;DHT22;10754;51.106;7.164;2022-12-18T18:28:34;2.80;1.00
21193;DHT22;10754;51.106;7.164;2022-12-18T18:31:04;2.70;1.00
21193;DHT22;10754;51.106;7.164;2022-12-18T18:33:31;2.70;1.00
21193;DHT22;10754;51.106;7.164;2022-12-18T18:35:57;2.60;1.00
21193;DHT22;10754;51.106;7.164;2022-12-18T18:38:23;2.80;1.00
21193;DHT22;10754;51.106;7.164;2022-12-18T18:40:59;2.80;1.00
21193;DHT22;10754;51.106;7.164;2022-12-18T18:43:26;2.80;1.00
21193;DHT22;10754;51.106;7.164;2022-12-18T18:45:56;2.70;1.00
21193;DHT22;10754;51.106;7.164;2022-12-18T18:48:22;2.80;1.00
21193;DHT22;10754;51.106;7.164;2022-12-18T18:51:01;2.40;1.00
21193;DHT22;10754;51.106;7.164;2022-12-18T18:53:27;2.50;1.00
21193;DHT22;10754;51.106;7.164;2022-12-18T18:55:57;2.80;1.00
21193;DHT22;10754;51.106;7.164;2022-12-18T18:58:23;2.60;1.00
21193;DHT22;10754;51.106;7.164;2022-12-18T19:01:04;2.60;1.00
21193;DHT22;10754;51.106;7.164;2022-12-18T19:03:30;2.80;1.00
21193;DHT22;10754;51.106;7.164;2022-12-18T19:05:58;2.40;1.00
21193;DHT22;10754;51.106;7.164;2022-12-18T19:08:26;2.40;1.00
21193;DHT22;10754;51.106;7.164;2022-12-18T19:10:54;2.40;1.00
21193;DHT22;10754;51.106;7.164;2022-12-18T19:13:21;2.80;1.00
21193;DHT22;10754;51.106;7.164;2022-12-18T19:15:50;2.60;1.00
21193;DHT22;10754;51.106;7.164;2022-12-18T19:18:17;2.70;1.00
21193;DHT22;10754;51.106;7.164;2022-12-18T19:20:43;2.60;1.00
21193;DHT22;10754;51.106;7.164;2022-12-18T19:23:10;2.70;1.00
21193;DHT22;10754;51.106;7.164;2022-12-18T19:25:37;2.60;1.00
21193;DHT22;10754;51.106;7.164;2022-12-18T19:28:03;2.90;1.00
21193;DHT22;10754;51.106;7.164;2022-12-18T19:30:29;2.80;1.00
21193;DHT22;10754;51.106;7.164;2022-12-18T19:32:55;2.90;1.00
21193;DHT22;10754;51.106;7.164;2022-12-18T19:35:21;2.90;1.00
21193;DHT22;10754;51.106;7.164;2022-12-18T19:37:47;2.70;1.00
21193;DHT22;10754;51.106;7.164;2022-12-18T19:40:13;2.80;1.00
21193;DHT22;10754;51.106;7.164;2022-12-18T19:42:39;2.90;1.00
21193;DHT22;10754;51.106;7.164;2022-12-18T19:45:06;3.00;1.00
21193;DHT22;10754;51.106;7.164;2022-12-18T19:47:31;2.90;1.00
21193;DHT22;10754;51.106;7.164;2022-12-18T19:49:57;2.90;1.00
21193;DHT22;10754;51.106;7.164;2022-12-18T19:52:23;3.10;1.00
21193;DHT22;10754;51.106;7.164;2022-12-18T19:54:49;2.90;1.00
21193;DHT22;10754;51.106;7.164;2022-12-18T19:57:15;3.00;1.00
21193;DHT22;10754;51.106;7.164;2022-12-18T19:59:41;3.10;1.00
21193;DHT22;10754;51.106;7.164;2022-12-18T20:02:12;2.90;1.00
21193;DHT22;10754;51.106;7.164;2022-12-18T20:04:38;2.70;1.00
21193;DHT22;10754;51.106;7.164;2022-12-18T20:07:04;2.70;1.00
21193;DHT22;10754;51.106;7.164;2022-12-18T20:09:30;2.80;1.00
21193;DHT22;10754;51.106;7.164;2022-12-18T20:11:56;2.80;1.00
21193;DHT22;10754;51.106;7.164;2022-12-18T20:14:22;3.00;1.00
21193;DHT22;10754;51.106;7.164;2022-12-18T20:16:47;2.80;1.00
21193;DHT22;10754;51.106;7.164;2022-12-18T20:19:13;2.80;1.00
21193;DHT22;10754;51.106;7.164;2022-12-18T20:21:39;3.00;1.00
21193;DHT22;10754;51.106;7.164;2022-12-18T20:24:06;3.00;1.00
21193;DHT22;10754;51.106;7.164;2022-12-18T20:26:33;2.80;1.00
21193;DHT22;10754;51.106;7.164;2022-12-18T20:28:59;2.80;1.00
21193;DHT22;10754;51.106;7.164;2022-12-18T20:31:25;2.60;1.00
21193;DHT22;10754;51.106;7.164;2022-12-18T20:33:51;2.90;1.00
21193;DHT22;10754;51.106;7.164;2022-12-18T20:36:19;2.70;1.00
21193;DHT22;10754;51.106;7.164;2022-12-18T20:38:48;2.70;1.00
21193;DHT22;10754;51.106;7.164;2022-12-18T20:41:17;2.80;1.00
21193;DHT22;10754;51.106;7.164;2022-12-18T20:43:44;2.90;1.00
21193;DHT22;10754;51.106;7.164;2022-12-18T20:46:11;3.10;1.00
21193;DHT22;10754;51.106;7.164;2022-12-18T20:48:37;3.10;1.00
21193;DHT22;10754;51.106;7.164;2022-12-18T20:51:06;3.10;1.00
21193;DHT22;10754;51.106;7.164;2022-12-18T20:53:33;3.00;1.00
21193;DHT22;10754;51.106;7.164;2022-12-18T20:56:00;3.20;1.00
21193;DHT22;10754;51.106;7.164;2022-12-18T20:58:26;2.90;1.00
21193;DHT22;10754;51.106;7.164;2022-12-18T21:01:07;3.30;1.00
21193;DHT22;10754;51.106;7.164;2022-12-18T21:03:33;3.10;1.00
21193;DHT22;10754;51.106;7.164;2022-12-18T21:05:59;3.10;1.00
21193;DHT22;10754;51.106;7.164;2022-12-18T21:08:25;3.20;1.00
21193;DHT22;10754;51.106;7.164;2022-12-18T21:10:51;3.20;1.00
21193;DHT22;10754;51.106;7.164;2022-12-18T21:13:17;3.20;1.00
21193;DHT22;10754;51.106;7.164;2022-12-18T21:15:43;3.40;1.00
21193;DHT22;10754;51.106;7.164;2022-12-18T21:18:09;3.50;1.00
21193;DHT22;10754;51.106;7.164;2022-12-18T21:20:34;3.40;1.00
21193;DHT22;10754;51.106;7.164;2022-12-18T21:23:00;3.10;1.00
21193;DHT22;10754;51.106;7.164;2022-12-18T21:25:31;3.40;1.00
21193;DHT22;10754;51.106;7.164;2022-12-18T21:27:57;3.10;1.00
21193;DHT22;10754;51.106;7.164;2022-12-18T21:30:22;3.40;1.00
21193;DHT22;10754;51.106;7.164;2022-12-18T21:32:48;3.30;1.00
21193;DHT22;10754;51.106;7.164;2022-12-18T21:35:14;3.40;1.00
21193;DHT22;10754;51.106;7.164;2022-12-18T21:37:39;3.40;1.00
21193;DHT22;10754;51.106;7.164;2022-12-18T21:40:05;3.50;1.00